Time;durP1;ratioP1;P1;durP2;ratioP2;P2;SDS_P1;SDS_P2;PMS_P1;PMS_P2;Temp;Humidity;BMP_temperature;BMP_pressure;BME280_temperature;BME280_humidity;BME280_pressure;Samples;Min_cycle;Max_cycle;Signal;HPM_P1;HPM_P2
2024/01/12 00:02:16;;;;;;;16.70;11.60;;;;;;;8.40;52.16;100555.09;105609;1257;74026;-54
2024/01/12 00:04:43;;;;;;;17.40;11.60;;;;;;;8.35;51.94;100553.54;105574;1254;72749;-54
2024/01/12 00:07:10;;;;;;;14.90;11.80;;;;;;;8.28;51.69;100551.10;105086;1257;72682;-54
2024/01/12 00:09:38;;;;;;;18.80;12.00;;;;;;;8.21;51.53;100555.65;105449;1253;60571;-54
2024/01/12 00:12:05;;;;;;;16.10;11.90;;;;;;;8.14;51.30;100555.48;105588;1253;60634;-54
2024/01/12 00:14:32;;;;;;;18.40;12.70;;;;;;;8.08;51.21;100557.23;105551;1252;73913;-55
2024/01/12 00:16:59;;;;;;;19.30;12.70;;;;;;;8.02;51.14;100557.77;105598;1252;72545;-55
2024/01/12 00:19:26;;;;;;;20.00;14.00;;;;;;;7.95;51.06;100551.48;105582;1253;72584;-56
2024/01/12 00:21:54;;;;;;;20.40;13.70;;;;;;;7.90;51.00;100551.14;105510;1253;60430;-55
2024/01/12 00:24:21;;;;;;;20.50;13.40;;;;;;;7.86;50.97;100549.04;105547;1253;60527;-54
2024/01/12 00:26:49;;;;;;;20.10;12.90;;;;;;;7.81;50.91;100545.89;105471;1253;74552;-55
2024/01/12 00:29:17;;;;;;;20.30;14.00;;;;;;;7.77;50.94;100549.40;105528;1253;72858;-54
2024/01/12 00:31:45;;;;;;;20.20;13.70;;;;;;;7.74;50.95;100546.95;105665;1253;72694;-54
2024/01/12 00:34:12;;;;;;;20.40;13.90;;;;;;;7.72;50.83;100541.70;105146;1253;60535;-54
2024/01/12 00:36:40;;;;;;;20.40;13.40;;;;;;;7.69;50.73;100544.84;105536;1253;60473;-55
2024/01/12 00:39:07;;;;;;;21.90;14.40;;;;;;;7.65;50.65;100542.23;105555;1257;73700;-54
2024/01/12 00:41:34;;;;;;;22.20;14.70;;;;;;;7.60;50.60;100542.58;105518;1257;72910;-54
2024/01/12 00:44:01;;;;;;;21.10;14.90;;;;;;;7.55;50.53;100541.52;105519;1253;72439;-55
2024/01/12 00:46:29;;;;;;;24.00;14.80;;;;;;;7.53;50.43;100544.66;105139;1253;60534;-55
2024/01/12 00:48:56;;;;;;;19.50;13.70;;;;;;;7.49;50.32;100540.65;105518;1257;60500;-54
2024/01/12 00:51:23;;;;;;;23.00;14.90;;;;;;;7.46;50.18;100543.77;105547;1257;73797;-54
2024/01/12 00:53:52;;;;;;;22.80;14.70;;;;;;;7.43;50.14;100543.95;105644;1253;72892;-54
2024/01/12 00:56:19;;;;;;;23.60;16.30;;;;;;;7.41;50.00;100548.30;105589;1253;72488;-56
2024/01/12 00:58:46;;;;;;;25.10;14.00;;;;;;;7.38;49.95;100546.56;105576;1253;60521;-54
2024/01/12 01:01:12;;;;;;;22.50;14.50;;;;;;;7.38;49.90;100544.99;105146;1253;60499;-55
2024/01/12 01:03:40;;;;;;;24.60;15.70;;;;;;;7.37;49.85;100537.83;105208;1260;73902;-55
2024/01/12 01:06:06;;;;;;;25.70;15.90;;;;;;;7.38;49.95;100536.27;105179;1254;72705;-55
2024/01/12 01:08:34;;;;;;;24.30;15.70;;;;;;;7.40;49.91;100532.42;105656;1254;73361;-54
2024/01/12 01:11:01;;;;;;;23.80;15.00;;;;;;;7.41;50.02;100532.27;105140;1254;60518;-55
2024/01/12 01:13:28;;;;;;;24.40;15.10;;;;;;;7.41;49.93;100529.63;105566;1253;60527;-55
2024/01/12 01:15:55;;;;;;;23.40;15.70;;;;;;;7.40;49.85;100529.11;105457;1257;73772;-55
2024/01/12 01:18:22;;;;;;;23.10;16.70;;;;;;;7.39;49.82;100530.15;105529;1254;72850;-56
2024/01/12 01:20:49;;;;;;;24.50;16.80;;;;;;;7.38;49.75;100527.02;105599;1254;72566;-54
2024/01/12 01:23:17;;;;;;;22.60;15.40;;;;;;;7.37;49.66;100528.76;105514;1253;60539;-54
2024/01/12 01:25:44;;;;;;;25.00;15.80;;;;;;;7.36;49.54;100522.12;105173;1262;60856;-56
2024/01/12 01:28:11;;;;;;;24.30;16.50;;;;;;;7.34;49.42;100522.47;105650;1253;73925;-56
2024/01/12 01:30:38;;;;;;;22.80;15.70;;;;;;;7.31;49.41;100522.29;105567;1254;73173;-56
2024/01/12 01:33:05;;;;;;;22.00;15.70;;;;;;;7.29;49.32;100518.96;105475;1253;72643;-55
2024/01/12 01:35:32;;;;;;;22.70;15.70;;;;;;;7.27;49.30;100517.73;105540;1253;60649;-56
2024/01/12 01:38:00;;;;;;;23.70;16.20;;;;;;;7.25;49.28;100513.90;105266;1261;60499;-55
2024/01/12 01:40:27;;;;;;;21.80;15.50;;;;;;;7.23;49.22;100514.42;105536;1252;73979;-55
2024/01/12 01:42:55;;;;;;;24.60;15.90;;;;;;;7.21;49.28;100515.98;105189;1253;72815;-55
2024/01/12 01:45:22;;;;;;;24.40;16.10;;;;;;;7.19;49.13;100513.73;105535;1253;72668;-54
2024/01/12 01:47:49;;;;;;;25.30;16.80;;;;;;;7.17;49.07;100514.77;105550;1253;60440;-55
2024/01/12 01:50:16;;;;;;;25.50;16.50;;;;;;;7.14;49.06;100509.86;105484;1253;60585;-54
2024/01/12 01:52:43;;;;;;;27.10;16.80;;;;;;;7.11;49.11;100507.59;105540;1256;73982;-54
2024/01/12 01:55:12;;;;;;;23.70;16.10;;;;;;;7.10;49.15;100511.95;105223;1260;72971;-54
2024/01/12 01:57:42;;;;;;;25.90;16.60;;;;;;;7.08;49.19;100511.95;105548;1253;71844;-55
2024/01/12 02:00:12;;;;;;;26.30;16.50;;;;;;;7.07;49.18;100520.48;105533;1253;60538;-55
2024/01/12 02:02:41;;;;;;;25.20;17.00;;;;;;;7.05;49.11;100514.55;105588;1253;60563;-56
2024/01/12 02:05:08;;;;;;;24.60;16.20;;;;;;;7.04;49.11;100514.55;105251;1258;74270;-56
2024/01/12 02:07:40;;;;;;;25.10;16.70;;;;;;;7.02;49.08;100511.41;105240;1256;72832;-56
2024/01/12 02:10:08;;;;;;;25.50;15.90;;;;;;;7.01;48.98;100516.29;105193;1259;71920;-56
2024/01/12 02:12:36;;;;;;;27.70;16.70;;;;;;;6.99;48.98;100509.48;105517;1254;60544;-57
2024/01/12 02:15:07;;;;;;;25.70;16.80;;;;;;;6.97;48.93;100505.12;105242;1253;60537;-54
2024/01/12 02:17:34;;;;;;;22.50;17.20;;;;;;;6.95;48.95;100508.79;105607;1256;73992;-54
2024/01/12 02:20:04;;;;;;;22.40;15.40;;;;;;;6.93;48.94;100507.89;105643;1253;71506;-55
2024/01/12 02:22:31;;;;;;;23.10;15.60;;;;;;;6.93;48.82;100505.97;105640;1253;71713;-55
2024/01/12 02:24:58;;;;;;;26.50;16.40;;;;;;;6.92;48.85;100508.93;105593;1253;60521;-55
2024/01/12 02:27:25;;;;;;;25.20;15.20;;;;;;;6.92;48.88;100509.80;105529;1254;60448;-54
2024/01/12 02:29:52;;;;;;;24.70;17.30;;;;;;;6.91;48.84;100517.48;105680;1253;72676;-55
2024/01/12 02:32:20;;;;;;;23.80;15.90;;;;;;;6.91;48.85;100518.86;105553;1253;73746;-54
2024/01/12 02:34:46;;;;;;;23.20;15.60;;;;;;;6.90;48.78;100516.95;105120;1261;72445;-53
2024/01/12 02:37:13;;;;;;;25.60;16.40;;;;;;;6.89;48.85;100517.29;105241;1253;61972;-53
2024/01/12 02:39:41;;;;;;;25.30;16.00;;;;;;;6.85;48.70;100521.99;105103;1256;60435;-53
2024/01/12 02:42:07;;;;;;;27.30;17.90;;;;;;;6.82;48.66;100516.41;105231;1260;73690;-53
2024/01/12 02:44:36;;;;;;;22.40;15.40;;;;;;;6.78;48.59;100513.23;105152;1253;72787;-55
2024/01/12 02:47:03;;;;;;;23.70;15.40;;;;;;;6.75;48.60;100517.59;105224;1254;73249;-55
2024/01/12 02:49:30;;;;;;;26.60;16.70;;;;;;;6.72;48.55;100528.05;105421;1253;60620;-54
2024/01/12 02:51:57;;;;;;;25.10;16.40;;;;;;;6.69;48.53;100535.17;105550;1257;60528;-54
2024/01/12 02:54:24;;;;;;;25.70;16.60;;;;;;;6.67;48.59;100533.60;105531;1256;73643;-55
2024/01/12 02:56:51;;;;;;;24.30;16.40;;;;;;;6.66;48.62;100534.81;105587;1253;72811;-55
2024/01/12 02:59:19;;;;;;;25.00;16.90;;;;;;;6.63;48.57;100534.98;105607;1253;73131;-55
2024/01/12 03:01:46;;;;;;;26.10;17.40;;;;;;;6.62;48.66;100542.46;105497;1253;60597;-56
2024/01/12 03:04:13;;;;;;;23.30;16.00;;;;;;;6.61;48.68;100536.53;105520;1255;61085;-55
2024/01/12 03:06:40;;;;;;;25.30;17.00;;;;;;;6.61;48.67;100536.19;105565;1257;74386;-55
2024/01/12 03:09:08;;;;;;;26.30;16.30;;;;;;;6.60;48.66;100541.58;105525;1253;73051;-55
2024/01/12 03:11:35;;;;;;;23.40;16.00;;;;;;;6.58;48.66;100549.59;105547;1257;70469;-55
2024/01/12 03:14:02;;;;;;;26.70;15.90;;;;;;;6.57;48.74;100545.58;105496;1253;60535;-55
2024/01/12 03:16:30;;;;;;;26.70;18.10;;;;;;;6.58;48.78;100545.23;105179;1257;60471;-55
2024/01/12 03:18:57;;;;;;;25.90;16.50;;;;;;;6.58;48.84;100546.29;105498;1257;73895;-56
2024/01/12 03:21:24;;;;;;;25.20;16.80;;;;;;;6.59;48.90;100548.39;105577;1253;72651;-55
2024/01/12 03:23:51;;;;;;;26.50;17.20;;;;;;;6.59;48.90;100554.83;105554;1253;72710;-55
2024/01/12 03:26:18;;;;;;;23.30;16.90;;;;;;;6.60;49.01;100557.45;105605;1253;60584;-56
2024/01/12 03:28:45;;;;;;;24.50;16.20;;;;;;;6.60;49.06;100548.38;105522;1253;61039;-56
2024/01/12 03:31:12;;;;;;;26.80;16.80;;;;;;;6.60;49.12;100552.04;105560;1256;73843;-55
2024/01/12 03:33:42;;;;;;;27.30;17.10;;;;;;;6.60;49.07;100557.45;105528;1253;72722;-55
2024/01/12 03:36:10;;;;;;;25.40;17.20;;;;;;;6.60;49.05;100564.59;105138;1256;72683;-56
2024/01/12 03:38:37;;;;;;;24.80;16.90;;;;;;;6.59;49.04;100572.42;105539;1253;60429;-56
2024/01/12 03:41:05;;;;;;;27.80;17.40;;;;;;;6.58;48.97;100570.34;105505;1253;60540;-56
2024/01/12 03:43:32;;;;;;;28.10;16.90;;;;;;;6.58;49.01;100572.42;105488;1258;73893;-55
2024/01/12 03:45:59;;;;;;;25.10;16.80;;;;;;;6.56;49.08;100581.11;105619;1253;72964;-55
2024/01/12 03:48:26;;;;;;;23.90;15.90;;;;;;;6.54;49.03;100588.08;105519;1253;72543;-55
2024/01/12 03:50:53;;;;;;;22.70;16.00;;;;;;;6.52;48.93;100595.90;105081;1256;60496;-55
2024/01/12 03:53:21;;;;;;;22.80;16.50;;;;;;;6.49;48.97;100604.78;105605;1257;60348;-53
2024/01/12 03:55:47;;;;;;;22.20;15.40;;;;;;;6.47;49.04;100619.41;105177;1261;73871;-53
2024/01/12 03:58:14;;;;;;;19.50;13.90;;;;;;;6.44;48.90;100618.52;105164;1260;72906;-53
2024/01/12 04:00:41;;;;;;;19.40;12.60;;;;;;;6.42;48.99;100620.08;105524;1253;72688;-56
2024/01/12 04:03:09;;;;;;;18.80;11.40;;;;;;;6.44;49.11;100624.44;105548;1253;60420;-57
2024/01/12 04:05:36;;;;;;;15.50;9.50;;;;;;;6.46;49.31;100630.20;105407;1253;60686;-57
2024/01/12 04:08:04;;;;;;;13.10;7.60;;;;;;;6.51;49.48;100635.98;105509;1258;74382;-56
2024/01/12 04:10:32;;;;;;;11.40;6.80;;;;;;;6.57;49.58;100639.69;105241;1253;72807;-56
2024/01/12 04:12:58;;;;;;;9.10;6.00;;;;;;;6.61;49.71;100641.11;105555;1253;72558;-57
2024/01/12 04:15:25;;;;;;;7.60;4.10;;;;;;;6.67;49.95;100639.75;105238;1253;60539;-55
2024/01/12 04:17:52;;;;;;;6.10;3.70;;;;;;;6.72;50.26;100646.40;105198;1257;60541;-57
2024/01/12 04:20:20;;;;;;;5.10;2.80;;;;;;;6.76;50.17;100644.67;105180;1262;73996;-59
2024/01/12 04:22:50;;;;;;;6.40;1.90;;;;;;;6.79;49.70;100657.09;105659;1253;72851;-57
2024/01/12 04:25:17;;;;;;;4.10;1.90;;;;;;;6.83;49.62;100667.05;105584;1253;72711;-57
2024/01/12 04:27:44;;;;;;;3.40;2.20;;;;;;;6.87;49.54;100672.30;105543;1253;60443;-56
2024/01/12 04:30:12;;;;;;;2.20;1.50;;;;;;;6.89;49.95;100675.80;105505;1257;60412;-56
2024/01/12 04:32:39;;;;;;;3.80;2.70;;;;;;;6.94;51.26;100681.77;105088;1261;74055;-56
2024/01/12 04:35:07;;;;;;;2.50;1.60;;;;;;;6.98;51.90;100682.30;105558;1253;72806;-56
2024/01/12 04:37:34;;;;;;;1.70;1.10;;;;;;;7.01;51.66;100690.16;105146;1253;72703;-56
2024/01/12 04:40:03;;;;;;;1.30;1.00;;;;;;;7.03;50.91;100695.05;105534;1253;60446;-55
2024/01/12 04:42:30;;;;;;;5.40;1.50;;;;;;;7.02;49.94;100706.22;105522;1253;60528;-57
2024/01/12 04:44:57;;;;;;;2.70;0.70;;;;;;;7.02;49.17;100714.23;105525;1257;73959;-56
2024/01/12 04:47:24;;;;;;;2.60;2.00;;;;;;;7.01;48.41;100718.95;105592;1254;73108;-58
2024/01/12 04:49:51;;;;;;;0.80;0.60;;;;;;;7.01;47.58;100718.25;105458;1253;72749;-58
2024/01/12 04:52:19;;;;;;;2.80;0.90;;;;;;;6.99;46.88;100721.02;105491;1253;60673;-58
2024/01/12 04:54:46;;;;;;;2.20;0.90;;;;;;;6.97;46.20;100720.84;105270;1261;60531;-59
2024/01/12 04:57:13;;;;;;;1.80;0.80;;;;;;;6.94;45.88;100722.21;105563;1258;73848;-59
2024/01/12 04:59:44;;;;;;;1.40;0.70;;;;;;;6.92;45.53;100721.67;105304;1261;72856;-58
2024/01/12 05:02:12;;;;;;;2.60;1.10;;;;;;;6.90;45.47;100730.02;105604;1253;72641;-60
2024/01/12 05:04:39;;;;;;;2.20;0.90;;;;;;;6.89;45.62;100734.03;105463;1253;60495;-56
2024/01/12 05:07:07;;;;;;;2.20;0.70;;;;;;;6.87;45.58;100744.14;105514;1256;60374;-56
2024/01/12 05:09:34;;;;;;;1.70;0.90;;;;;;;6.86;45.02;100751.28;105239;1260;74289;-55
2024/01/12 05:12:04;;;;;;;2.90;0.80;;;;;;;6.83;44.71;100752.66;105446;1253;71785;-55
2024/01/12 05:14:32;;;;;;;2.90;0.80;;;;;;;6.82;44.57;100760.31;105644;1253;72674;-56
2024/01/12 05:16:59;;;;;;;2.80;1.10;;;;;;;6.80;45.48;100770.06;105526;1253;60448;-55
2024/01/12 05:19:26;;;;;;;2.00;1.10;;;;;;;6.80;45.99;100779.30;105131;1260;60516;-57
2024/01/12 05:21:53;;;;;;;1.30;0.90;;;;;;;6.81;46.97;100789.95;105534;1253;74553;-56
2024/01/12 05:24:20;;;;;;;1.60;1.00;;;;;;;6.81;46.72;100795.71;105530;1253;72882;-56
2024/01/12 05:26:47;;;;;;;6.00;1.20;;;;;;;6.80;46.31;100800.94;105536;1253;72768;-56
2024/01/12 05:29:15;;;;;;;2.40;1.10;;;;;;;6.81;46.31;100808.95;105205;1253;60502;-59
2024/01/12 05:31:43;;;;;;;3.60;0.80;;;;;;;6.81;46.41;100816.64;105500;1254;60402;-58
2024/01/12 05:34:10;;;;;;;5.20;1.30;;;;;;;6.81;46.23;100817.33;105566;1258;72636;-55
2024/01/12 05:36:38;;;;;;;3.50;0.90;;;;;;;6.82;46.08;100821.34;105554;1254;73312;-59
2024/01/12 05:39:05;;;;;;;1.60;0.80;;;;;;;6.82;46.22;100819.06;105605;1253;73262;-58
2024/01/12 05:41:32;;;;;;;5.90;1.30;;;;;;;6.81;46.43;100822.73;105510;1252;60537;-58
2024/01/12 05:44:01;;;;;;;5.90;1.00;;;;;;;6.81;46.42;100825.70;105247;1253;60541;-59
2024/01/12 05:46:28;;;;;;;2.60;1.10;;;;;;;6.80;46.51;100829.34;105562;1257;73964;-57
2024/01/12 05:48:55;;;;;;;3.20;1.00;;;;;;;6.80;46.37;100838.77;105574;1253;72829;-56
2024/01/12 05:51:22;;;;;;;2.40;0.80;;;;;;;6.78;45.95;100844.83;105598;1253;73427;-57
2024/01/12 05:53:49;;;;;;;5.20;1.10;;;;;;;6.78;45.97;100847.27;105501;1253;60483;-57
2024/01/12 05:56:17;;;;;;;4.30;1.00;;;;;;;6.77;46.09;100864.70;105515;1257;60268;-57
2024/01/12 05:58:43;;;;;;;8.00;1.00;;;;;;;6.77;45.78;100871.50;105193;1259;73640;-54
2024/01/12 06:01:11;;;;;;;3.60;1.00;;;;;;;6.76;45.63;100879.16;105411;1254;72868;-58
2024/01/12 06:03:39;;;;;;;3.00;0.80;;;;;;;6.76;45.69;100898.70;105465;1253;71575;-60
2024/01/12 06:06:06;;;;;;;4.80;1.60;;;;;;;6.75;45.51;100900.94;105491;1253;60538;-63
2024/01/12 06:08:33;;;;;;;5.90;1.20;;;;;;;6.75;45.66;100911.76;105562;1256;60428;-59
2024/01/12 06:11:00;;;;;;;5.10;0.90;;;;;;;6.74;46.67;100921.86;105345;1251;73923;-59
2024/01/12 06:13:29;;;;;;;1.50;1.00;;;;;;;6.74;46.30;100920.80;105065;1254;73468;-59
2024/01/12 06:15:56;;;;;;;3.80;1.40;;;;;;;6.72;45.80;100929.34;105545;1252;72535;-59
2024/01/12 06:18:24;;;;;;;5.40;1.10;;;;;;;6.71;45.54;100929.15;105604;1251;60481;-60
2024/01/12 06:20:52;;;;;;;5.40;1.50;;;;;;;6.70;45.05;100933.67;105622;1257;60447;-57
2024/01/12 06:23:19;;;;;;;6.30;1.20;;;;;;;6.68;44.68;100934.52;105589;1256;73788;-59
2024/01/12 06:25:46;;;;;;;3.70;1.40;;;;;;;6.67;44.72;100950.55;105240;1253;73980;-59
2024/01/12 06:28:13;;;;;;;3.80;1.30;;;;;;;6.67;44.60;100952.65;105486;1253;72753;-59
2024/01/12 06:30:40;;;;;;;7.10;1.60;;;;;;;6.65;44.76;100940.77;105588;1253;60439;-59
2024/01/12 06:33:07;;;;;;;6.30;1.40;;;;;;;6.65;44.64;100932.74;105491;1254;60437;-59
2024/01/12 06:35:35;;;;;;;4.30;1.40;;;;;;;6.64;43.99;100936.39;105812;1253;73862;-60
2024/01/12 06:38:03;;;;;;;3.20;1.20;;;;;;;6.62;44.12;100945.61;105583;1254;72981;-59
2024/01/12 06:40:31;;;;;;;3.50;1.40;;;;;;;6.61;44.11;100948.91;105486;1253;73809;-60
2024/01/12 06:42:58;;;;;;;1.70;1.00;;;;;;;6.60;44.34;100945.23;105174;1259;60502;-60
2024/01/12 06:45:25;;;;;;;3.30;1.10;;;;;;;6.59;44.08;100955.17;105541;1253;60407;-59
2024/01/12 06:47:52;;;;;;;3.20;1.30;;;;;;;6.58;43.74;100968.40;105677;1259;74191;-59
2024/01/12 06:50:19;;;;;;;4.30;1.20;;;;;;;6.57;43.43;100981.98;105557;1253;72971;-58
2024/01/12 06:52:46;;;;;;;5.40;1.60;;;;;;;6.56;43.15;100993.46;105506;1254;72644;-58
2024/01/12 06:55:13;;;;;;;5.60;1.40;;;;;;;6.55;43.07;101005.81;105529;1253;60443;-59
2024/01/12 06:57:43;;;;;;;4.30;1.40;;;;;;;6.54;42.63;101010.87;105467;1254;60530;-59
2024/01/12 07:00:11;;;;;;;3.50;1.40;;;;;;;6.52;42.18;101016.95;105258;1259;73877;-58
2024/01/12 07:02:38;;;;;;;3.40;1.00;;;;;;;6.50;42.24;101015.00;105538;1257;71924;-59
2024/01/12 07:05:07;;;;;;;2.80;1.00;;;;;;;6.48;42.38;101022.65;105438;1254;72699;-58
2024/01/12 07:07:33;;;;;;;3.30;0.90;;;;;;;6.46;42.05;101023.50;105232;1257;60663;-60
2024/01/12 07:10:02;;;;;;;2.00;1.10;;;;;;;6.44;42.02;101022.08;105616;1256;61436;-59
2024/01/12 07:12:29;;;;;;;4.00;1.30;;;;;;;6.43;42.19;101018.05;105191;1253;73901;-59
2024/01/12 07:14:57;;;;;;;4.80;1.10;;;;;;;6.41;42.24;101027.77;105164;1253;73258;-58
2024/01/12 07:17:24;;;;;;;5.90;1.10;;;;;;;6.40;41.60;101032.81;105564;1253;72751;-59
2024/01/12 07:19:51;;;;;;;2.50;1.30;;;;;;;6.38;41.12;101040.11;105532;1253;60511;-58
2024/01/12 07:22:18;;;;;;;2.80;1.20;;;;;;;6.37;41.33;101048.11;105526;1258;60426;-56
2024/01/12 07:24:45;;;;;;;4.70;1.10;;;;;;;6.36;41.30;101054.38;105548;1259;73874;-60
2024/01/12 07:27:12;;;;;;;4.00;1.50;;;;;;;6.35;41.27;101060.12;105071;1253;73415;-61
2024/01/12 07:29:39;;;;;;;3.00;1.40;;;;;;;6.33;40.51;101063.05;105521;1253;72611;-59
2024/01/12 07:32:06;;;;;;;2.40;1.20;;;;;;;6.32;40.60;101068.08;105594;1254;60454;-61
2024/01/12 07:34:36;;;;;;;2.80;1.20;;;;;;;6.30;40.74;101069.79;105564;1259;60851;-60
2024/01/12 07:37:03;;;;;;;2.50;1.60;;;;;;;6.29;40.62;101082.31;105135;1261;72982;-59
2024/01/12 07:39:32;;;;;;;1.40;1.00;;;;;;;6.27;40.44;101080.38;105519;1257;72852;-60
2024/01/12 07:41:59;;;;;;;5.60;2.20;;;;;;;6.27;40.14;101084.38;105598;1257;72499;-62
2024/01/12 07:44:26;;;;;;;2.70;1.20;;;;;;;6.26;39.72;101088.02;105529;1253;60519;-61
2024/01/12 07:46:54;;;;;;;1.50;1.10;;;;;;;6.25;39.86;101096.38;105130;1262;60382;-60
2024/01/12 07:49:21;;;;;;;3.70;1.70;;;;;;;6.24;39.31;101102.80;105202;1262;73881;-60
2024/01/12 07:51:48;;;;;;;3.40;1.50;;;;;;;6.18;38.28;101095.73;105549;1253;73538;-60
2024/01/12 07:54:15;;;;;;;3.20;1.30;;;;;;;6.09;38.18;101105.89;105532;1257;73018;-60
2024/01/12 07:56:42;;;;;;;3.60;1.50;;;;;;;6.05;38.35;101106.88;105566;1257;61493;-61
2024/01/12 07:59:12;;;;;;;2.40;1.50;;;;;;;6.05;38.39;101109.30;105229;1254;60585;-60
2024/01/12 08:01:40;;;;;;;3.70;1.20;;;;;;;6.05;38.67;101116.45;105151;1262;73970;-62
2024/01/12 08:04:09;;;;;;;2.20;1.40;;;;;;;6.06;38.75;101125.84;105214;1254;73856;-62
2024/01/12 08:06:36;;;;;;;1.90;1.20;;;;;;;6.06;38.25;101134.91;105239;1253;72427;-59
2024/01/12 08:09:03;;;;;;;3.90;1.60;;;;;;;6.02;37.65;101135.55;105546;1257;60446;-61
2024/01/12 08:11:31;;;;;;;1.80;1.10;;;;;;;5.99;37.61;101137.41;105576;1259;60983;-60
2024/01/12 08:14:07;;;;;;;4.40;1.40;;;;;;;5.98;37.91;101141.59;105523;1256;73915;-60
2024/01/12 08:16:37;;;;;;;2.70;1.80;;;;;;;5.99;37.56;101146.27;105597;1253;73675;-59
2024/01/12 08:19:04;;;;;;;2.70;1.20;;;;;;;5.97;37.24;101146.42;105397;1254;72684;-60
2024/01/12 08:21:32;;;;;;;2.80;1.50;;;;;;;5.96;37.32;101146.21;105241;1257;60592;-61
2024/01/12 08:24:15;;;;;;;3.80;1.90;;;;;;;5.96;37.41;101143.44;105555;1254;60952;-62
2024/01/12 08:26:45;;;;;;;2.70;1.30;;;;;;;5.97;37.66;101144.34;105603;1257;74057;-61
2024/01/12 08:29:12;;;;;;;3.70;1.70;;;;;;;5.98;37.74;101152.02;105542;1257;70677;-62
2024/01/12 08:31:39;;;;;;;3.30;1.50;;;;;;;5.98;37.80;101155.15;105527;1257;72684;-62
2024/01/12 08:34:06;;;;;;;2.00;1.20;;;;;;;6.00;38.14;101151.89;105262;1253;60461;-62
2024/01/12 08:36:33;;;;;;;3.70;1.90;;;;;;;6.01;37.93;101153.64;105604;1258;60448;-61
2024/01/12 08:39:01;;;;;;;2.40;1.20;;;;;;;6.00;38.03;101150.30;105183;1260;73946;-60
2024/01/12 08:41:28;;;;;;;3.30;1.50;;;;;;;6.01;38.06;101160.59;105559;1257;72620;-61
2024/01/12 08:43:57;;;;;;;4.80;2.10;;;;;;;5.99;37.58;101161.45;105547;1255;72677;-62
2024/01/12 08:46:24;;;;;;;2.50;1.30;;;;;;;5.98;37.36;101162.45;105598;1254;60493;-62
2024/01/12 08:48:52;;;;;;;3.60;1.40;;;;;;;5.97;37.93;101165.94;105571;1257;61266;-61
2024/01/12 08:51:20;;;;;;;3.10;1.60;;;;;;;5.98;37.86;101171.17;105597;1256;73694;-61
2024/01/12 08:53:47;;;;;;;2.80;1.70;;;;;;;6.00;37.71;101180.25;105577;1259;72821;-60
2024/01/12 08:56:14;;;;;;;3.30;1.50;;;;;;;5.99;37.49;101186.52;105551;1257;73514;-60
2024/01/12 08:58:42;;;;;;;3.00;1.80;;;;;;;5.99;37.22;101193.48;105591;1255;60474;-59
2024/01/12 09:01:08;;;;;;;3.60;1.40;;;;;;;5.98;36.89;101191.55;105231;1260;60521;-60
2024/01/12 09:03:36;;;;;;;3.50;1.60;;;;;;;5.96;37.11;101194.95;105410;1259;73812;-59
2024/01/12 09:06:04;;;;;;;3.80;2.20;;;;;;;5.96;37.17;101199.15;105604;1257;72913;-60
2024/01/12 09:08:32;;;;;;;3.30;1.70;;;;;;;5.96;37.19;101210.47;105625;1257;73468;-59
2024/01/12 09:11:00;;;;;;;2.50;1.50;;;;;;;5.97;37.03;101210.34;105588;1252;60541;-59
2024/01/12 09:13:27;;;;;;;4.80;1.60;;;;;;;5.96;36.62;101207.70;105309;1254;60607;-62
2024/01/12 09:15:55;;;;;;;3.90;1.20;;;;;;;5.95;36.72;101211.83;105221;1269;74001;-60
2024/01/12 09:18:22;;;;;;;5.00;1.30;;;;;;;5.95;37.06;101214.98;105280;1253;378362;-60
2024/01/12 09:20:50;;;;;;;3.30;1.30;;;;;;;5.97;37.40;101215.38;105176;1262;73354;-60
2024/01/12 09:23:17;;;;;;;2.20;1.30;;;;;;;5.99;37.45;101222.21;105283;1262;61140;-59
2024/01/12 09:25:44;;;;;;;1.20;0.90;;;;;;;6.00;37.25;101224.85;105581;1259;60520;-60
2024/01/12 09:28:11;;;;;;;2.70;1.20;;;;;;;6.01;37.47;101226.44;105656;1254;73816;-60
2024/01/12 09:30:39;;;;;;;2.20;1.10;;;;;;;6.02;37.68;101229.40;105227;1253;72527;-60
2024/01/12 09:33:07;;;;;;;1.80;1.00;;;;;;;6.04;37.66;101228.91;105561;1257;73464;-61
2024/01/12 09:35:34;;;;;;;3.30;1.20;;;;;;;6.04;37.57;101232.24;105567;1257;60543;-60
2024/01/12 09:38:01;;;;;;;3.20;1.60;;;;;;;6.05;36.81;101238.16;105552;1257;60417;-60
2024/01/12 09:40:30;;;;;;;3.90;1.40;;;;;;;5.99;36.26;101238.77;105175;1260;74823;-60
2024/01/12 09:42:57;;;;;;;2.20;1.70;;;;;;;5.94;36.55;101235.33;105234;1264;72745;-62
2024/01/12 09:45:24;;;;;;;3.30;1.50;;;;;;;5.95;36.88;101237.61;105195;1254;71723;-62
2024/01/12 09:47:52;;;;;;;4.70;1.90;;;;;;;5.97;36.87;101238.90;105315;1252;60569;-61
2024/01/12 09:50:24;;;;;;;5.60;1.60;;;;;;;5.99;36.60;101239.80;105644;1255;60845;-61
2024/01/12 09:52:51;;;;;;;2.90;1.30;;;;;;;5.97;36.08;101231.39;105610;1257;74097;-60
2024/01/12 09:55:18;;;;;;;6.50;1.40;;;;;;;5.93;36.02;101232.53;105608;1257;72701;-61
2024/01/12 09:57:46;;;;;;;2.50;1.50;;;;;;;5.90;35.90;101234.02;109558;1254;72894;-62
2024/01/12 10:00:16;;;;;;;2.40;1.30;;;;;;;5.87;35.32;101247.89;109573;1253;58939;-59
2024/01/12 10:02:43;;;;;;;2.90;1.10;;;;;;;5.79;34.76;101241.83;109588;1253;60087;-59
2024/01/12 10:05:11;;;;;;;1.80;1.20;;;;;;;5.75;34.85;101246.44;109340;1253;74055;-59
2024/01/12 10:07:38;;;;;;;2.90;1.10;;;;;;;5.75;34.71;101244.70;109581;1252;72679;-59
2024/01/12 10:10:06;;;;;;;1.50;0.90;;;;;;;5.77;34.97;101243.87;109370;1254;72344;-60
2024/01/12 10:12:33;;;;;;;2.30;1.10;;;;;;;5.82;35.29;101243.27;109559;1252;59516;-59
2024/01/12 10:15:08;;;;;;;1.90;1.30;;;;;;;5.87;35.12;101249.11;109537;1253;60742;-59
2024/01/12 10:17:35;;;;;;;3.20;1.30;;;;;;;5.89;35.20;101246.71;109245;1253;72911;-59
2024/01/12 10:20:05;;;;;;;1.90;1.10;;;;;;;5.94;35.35;101248.72;109126;1254;72789;-59
2024/01/12 10:22:32;;;;;;;2.50;1.00;;;;;;;6.00;35.23;101251.65;109379;1254;72667;-61
2024/01/12 10:25:00;;;;;;;1.20;0.90;;;;;;;6.05;35.55;101252.62;109530;1253;60112;-60
2024/01/12 10:27:27;;;;;;;3.30;1.30;;;;;;;6.11;35.96;101257.09;109184;1254;60490;-61
2024/01/12 10:29:55;;;;;;;2.10;1.60;;;;;;;6.17;36.16;101256.34;109489;1253;74176;-59
2024/01/12 10:32:23;;;;;;;4.50;1.50;;;;;;;6.23;35.56;101253.83;109533;1252;72740;-60
2024/01/12 10:34:50;;;;;;;2.10;1.50;;;;;;;6.25;35.38;101260.65;109076;1254;72959;-60
2024/01/12 10:37:17;;;;;;;1.50;1.40;;;;;;;6.26;34.70;101261.54;109499;1253;58154;-61
2024/01/12 10:39:44;;;;;;;3.50;1.50;;;;;;;6.21;34.31;101260.75;109238;1253;59871;-60
2024/01/12 10:42:12;;;;;;;2.30;1.60;;;;;;;6.19;34.11;101264.02;109532;1253;72655;-60
2024/01/12 10:44:40;;;;;;;3.90;2.10;;;;;;;6.19;34.21;101257.58;109595;1253;72119;-61
2024/01/12 10:47:32;;;;;;;2.20;1.20;;;;;;;6.22;34.54;101264.96;109157;1258;72426;-61
2024/01/12 10:50:06;;;;;;;1.70;1.20;;;;;;;6.26;33.99;101271.80;109555;1254;59273;-61
2024/01/12 10:52:36;;;;;;;3.20;1.20;;;;;;;6.21;33.56;101267.55;109121;1253;58045;-61
2024/01/12 10:55:04;;;;;;;5.30;1.30;;;;;;;6.19;33.77;101273.79;109581;1253;74333;-61
2024/01/12 10:57:32;;;;;;;2.50;1.30;;;;;;;6.20;33.60;101268.23;109507;1253;72663;-60
2024/01/12 10:59:59;;;;;;;1.70;1.30;;;;;;;6.23;34.35;101266.20;109559;1254;72867;-61
2024/01/12 11:02:26;;;;;;;2.50;1.40;;;;;;;6.29;34.99;101275.37;109523;1252;58446;-60
2024/01/12 11:04:56;;;;;;;2.80;1.60;;;;;;;6.35;34.57;101269.02;109338;1254;58853;-59
2024/01/12 11:07:23;;;;;;;3.40;2.10;;;;;;;6.38;34.71;101270.12;109221;1254;72755;-60
2024/01/12 11:09:50;;;;;;;3.60;2.10;;;;;;;6.44;34.56;101278.58;109351;1254;73156;-59
2024/01/12 11:12:31;;;;;;;2.50;1.80;;;;;;;6.44;34.05;101282.60;109229;1253;71659;-60
2024/01/12 11:14:58;;;;;;;2.90;1.40;;;;;;;6.39;33.51;101291.91;109356;1252;59174;-60
2024/01/12 11:17:28;;;;;;;3.20;1.50;;;;;;;6.35;33.33;101279.65;109591;1253;59091;-60
2024/01/12 11:20:11;;;;;;;2.20;1.30;;;;;;;6.35;33.59;101289.23;109369;1257;72690;-60
2024/01/12 11:22:44;;;;;;;3.90;2.20;;;;;;;6.40;33.65;101285.48;109575;1253;73060;-58